createdAt,value
2022-12-17T00:02:33.929Z,1.76
2022-12-17T00:05:19.027Z,1.22
2022-12-17T00:08:18.317Z,1.37
2022-12-17T00:11:04.427Z,2.46
2022-12-17T00:13:50.708Z,5.48
2022-12-17T00:16:36.677Z,5.86
2022-12-17T00:19:21.710Z,5.18
2022-12-17T00:22:06.665Z,6.68
2022-12-17T00:24:52.168Z,6.24
2022-12-17T00:27:37.342Z,5.05
2022-12-17T00:30:24.500Z,3.17
2022-12-17T00:33:09.676Z,2.00
2022-12-17T00:35:55.375Z,1.21
2022-12-17T00:38:41.138Z,1.76
2022-12-17T00:41:26.290Z,0.89
2022-12-17T00:44:11.450Z,1.52
2022-12-17T00:46:57.922Z,1.04
2022-12-17T00:49:42.950Z,0.63
2022-12-17T00:52:27.873Z,1.31
2022-12-17T00:55:12.692Z,1.33
2022-12-17T00:57:57.530Z,1.71
2022-12-17T01:00:42.968Z,1.22
2022-12-17T01:03:31.167Z,0.54
2022-12-17T01:06:19.372Z,-0.54
2022-12-17T01:09:04.263Z,-0.62
2022-12-17T01:11:49.582Z,-0.17
2022-12-17T01:14:31.150Z,0.78
2022-12-17T01:17:15.827Z,0.33
2022-12-17T01:20:02.657Z,0.55
2022-12-17T01:22:47.992Z,0.47
2022-12-17T01:25:33.451Z,0.70
2022-12-17T01:28:18.399Z,0.48
2022-12-17T01:31:03.257Z,0.48
2022-12-17T01:33:48.179Z,0.75
2022-12-17T01:36:34.767Z,0.67
2022-12-17T01:39:20.111Z,0.14
2022-12-17T01:42:05.364Z,0.00
2022-12-17T01:45:02.885Z,0.33
2022-12-17T01:47:52.414Z,0.50
2022-12-17T01:50:39.359Z,0.84
2022-12-17T01:53:27.056Z,0.52
2022-12-17T01:56:12.456Z,0.57
2022-12-17T01:58:58.222Z,0.72
2022-12-17T02:01:43.639Z,0.84
2022-12-17T02:04:29.689Z,0.18
2022-12-17T02:07:28.574Z,-0.02
2022-12-17T02:10:27.544Z,-0.27
2022-12-17T02:13:18.902Z,0.00
2022-12-17T02:16:08.710Z,-0.07
2022-12-17T02:18:58.846Z,0.05
2022-12-17T02:21:46.265Z,0.39
2022-12-17T02:24:39.722Z,0.64
2022-12-17T02:27:27.898Z,0.63
2022-12-17T02:30:16.213Z,0.51
2022-12-17T02:33:04.501Z,0.46
2022-12-17T02:35:53.192Z,0.26
2022-12-17T02:38:36.041Z,0.69
2022-12-17T02:41:23.311Z,0.04
2022-12-17T02:44:11.896Z,-0.22
2022-12-17T02:46:59.755Z,-0.18
2022-12-17T02:49:45.645Z,-0.47
2022-12-17T02:52:34.883Z,0.11
2022-12-17T02:55:20.395Z,-0.20
2022-12-17T02:58:05.177Z,-0.27
2022-12-17T03:00:51.817Z,-0.27
2022-12-17T03:03:51.648Z,-0.07
2022-12-17T03:06:37.346Z,-0.32
2022-12-17T03:09:22.876Z,-0.11
2022-12-17T03:12:08.715Z,0.06
2022-12-17T03:14:53.581Z,0.23
2022-12-17T03:17:40.265Z,0.73
2022-12-17T03:20:26.539Z,0.96
2022-12-17T03:23:11.347Z,0.77
2022-12-17T03:25:56.533Z,0.70
2022-12-17T03:28:41.867Z,0.94
2022-12-17T03:31:41.234Z,1.10
2022-12-17T03:34:27.637Z,0.14
2022-12-17T03:37:12.593Z,0.49
2022-12-17T03:39:57.934Z,-0.48
2022-12-17T03:42:43.345Z,-0.52
2022-12-17T03:45:29.111Z,-0.14
2022-12-17T03:48:23.473Z,0.17
2022-12-17T03:51:09.941Z,-0.35
2022-12-17T03:53:54.734Z,-0.42
2022-12-17T03:56:40.184Z,-0.87
2022-12-17T03:59:24.965Z,-0.73
2022-12-17T04:02:24.931Z,0.70
2022-12-17T04:05:13.816Z,0.59
2022-12-17T04:08:03.338Z,-0.82
2022-12-17T04:10:48.715Z,-0.92
2022-12-17T04:13:38.843Z,-0.39
2022-12-17T04:16:26.103Z,0.04
2022-12-17T04:19:11.542Z,0.55
2022-12-17T04:21:56.248Z,0.18
2022-12-17T04:24:42.807Z,0.84
2022-12-17T04:27:27.701Z,0.81
2022-12-17T04:30:12.495Z,0.37
2022-12-17T04:33:06.392Z,-0.38
2022-12-17T04:35:51.292Z,-0.26
2022-12-17T04:38:36.023Z,-0.02
2022-12-17T04:41:22.587Z,-0.26
2022-12-17T04:44:07.403Z,0.57
2022-12-17T04:46:52.102Z,0.94
2022-12-17T04:49:36.973Z,0.09
2022-12-17T04:52:22.760Z,-0.01
2022-12-17T04:55:09.879Z,-0.27
2022-12-17T04:57:56.433Z,-0.56
2022-12-17T05:00:41.590Z,-0.42
2022-12-17T05:03:29.938Z,0.17
2022-12-17T05:06:15.631Z,-0.09
2022-12-17T05:09:00.940Z,0.77
2022-12-17T05:11:46.447Z,1.09
2022-12-17T05:14:32.887Z,0.88
2022-12-17T05:17:29.136Z,0.83
2022-12-17T05:20:14.267Z,0.70
2022-12-17T05:22:59.525Z,0.98
2022-12-17T05:25:44.196Z,0.73
2022-12-17T05:28:29.047Z,0.75
2022-12-17T05:31:15.722Z,0.66
2022-12-17T05:34:00.650Z,0.18
2022-12-17T05:36:45.585Z,-0.10
2022-12-17T05:39:30.833Z,0.35
2022-12-17T05:42:15.728Z,0.30
2022-12-17T05:45:00.436Z,-0.03
2022-12-17T05:47:46.938Z,-0.18
2022-12-17T05:50:32.880Z,0.08
2022-12-17T05:53:20.671Z,-0.19
2022-12-17T05:56:08.310Z,-0.54
2022-12-17T05:58:53.226Z,0.17
2022-12-17T06:01:37.961Z,0.38
2022-12-17T06:04:24.356Z,0.45
2022-12-17T06:07:09.030Z,0.32
2022-12-17T06:09:53.808Z,-0.23
2022-12-17T06:12:38.764Z,-0.08
2022-12-17T06:15:24.594Z,-0.38
2022-12-17T06:18:16.647Z,-0.51
2022-12-17T06:21:03.245Z,0.20
2022-12-17T06:23:47.993Z,0.04
2022-12-17T06:26:33.426Z,-0.04
2022-12-17T06:29:18.173Z,-0.03
2022-12-17T06:32:02.875Z,0.09
2022-12-17T06:34:47.768Z,0.02
2022-12-17T06:37:34.322Z,-1.03
2022-12-17T06:40:19.245Z,-0.07
2022-12-17T06:43:11.118Z,0.64
2022-12-17T06:45:55.906Z,0.62
2022-12-17T06:48:41.297Z,0.96
2022-12-17T06:51:26.025Z,0.42
2022-12-17T06:54:12.337Z,-0.73
2022-12-17T06:56:57.092Z,-0.56
2022-12-17T06:59:41.868Z,-0.73
2022-12-17T07:02:28.868Z,-0.37
2022-12-17T07:05:14.166Z,0.46
2022-12-17T07:07:58.922Z,0.48
2022-12-17T07:10:45.489Z,0.17
2022-12-17T07:13:30.170Z,1.01
2022-12-17T07:16:14.997Z,0.91
2022-12-17T07:19:00.118Z,0.62
2022-12-17T07:21:45.480Z,0.17
2022-12-17T07:24:30.737Z,0.04
2022-12-17T07:27:17.387Z,0.88
2022-12-17T07:30:02.243Z,1.18
2022-12-17T07:32:46.987Z,1.28
2022-12-17T07:35:32.283Z,0.91
2022-12-17T07:38:18.050Z,1.00
2022-12-17T07:41:03.279Z,1.17
2022-12-17T07:43:53.247Z,0.91
2022-12-17T07:46:38.648Z,0.26
2022-12-17T07:49:25.973Z,1.01
2022-12-17T07:52:11.599Z,0.83
2022-12-17T07:54:56.365Z,0.99
2022-12-17T07:57:41.124Z,0.49
2022-12-17T08:00:29.232Z,0.43
2022-12-17T08:03:16.035Z,0.24
2022-12-17T08:06:00.899Z,0.47
2022-12-17T08:08:45.503Z,0.17
2022-12-17T08:11:29.606Z,0.14
2022-12-17T08:14:14.181Z,-0.23
2022-12-17T08:17:00.786Z,-0.32
2022-12-17T08:19:46.047Z,-0.24
2022-12-17T08:22:31.341Z,-0.17
2022-12-17T08:25:16.204Z,-0.15
2022-12-17T08:28:01.094Z,-0.39
2022-12-17T08:30:49.217Z,-0.45
2022-12-17T08:33:36.170Z,-0.01
2022-12-17T08:36:21.576Z,0.42
2022-12-17T08:39:06.743Z,-0.01
2022-12-17T08:41:54.954Z,0.40
2022-12-17T08:44:41.402Z,0.70
2022-12-17T08:47:26.740Z,0.41
2022-12-17T08:50:13.382Z,0.35
2022-12-17T08:52:58.111Z,0.83
2022-12-17T08:55:42.870Z,1.23
2022-12-17T08:58:27.602Z,1.09
2022-12-17T09:01:13.087Z,4.07
2022-12-17T09:03:58.083Z,4.82
2022-12-17T09:06:44.682Z,2.01
2022-12-17T09:09:30.113Z,0.66
2022-12-17T09:12:11.544Z,0.45
2022-12-17T09:14:56.481Z,3.25
2022-12-17T09:17:41.719Z,2.21
2022-12-17T09:20:29.437Z,1.68
2022-12-17T09:23:16.893Z,4.23
2022-12-17T09:26:03.874Z,4.66
2022-12-17T09:28:48.731Z,5.41
2022-12-17T09:31:37.282Z,6.46
2022-12-17T09:34:22.578Z,4.88
2022-12-17T09:37:07.405Z,4.13
2022-12-17T09:39:54.001Z,2.45
2022-12-17T09:42:51.800Z,1.85
2022-12-17T09:45:44.080Z,2.06
2022-12-17T09:48:39.637Z,1.25
2022-12-17T09:51:32.041Z,1.77
2022-12-17T09:54:17.507Z,1.45
2022-12-17T09:57:04.008Z,1.21
2022-12-17T09:59:53.194Z,1.01
2022-12-17T10:02:42.004Z,0.71
2022-12-17T10:05:45.482Z,1.31
2022-12-17T10:08:33.934Z,1.27
2022-12-17T10:11:31.234Z,0.41
2022-12-17T10:14:22.546Z,-0.54
2022-12-17T10:17:11.887Z,0.01
2022-12-17T10:20:00.265Z,0.72
2022-12-17T10:22:45.644Z,1.36
2022-12-17T10:25:35.146Z,0.84
2022-12-17T10:28:23.437Z,0.71
2022-12-17T10:31:09.978Z,0.79
2022-12-17T10:33:57.742Z,1.19
2022-12-17T10:36:44.927Z,0.83
2022-12-17T10:39:35.844Z,0.43
2022-12-17T10:42:21.553Z,0.72
2022-12-17T10:45:06.455Z,0.33
2022-12-17T10:47:52.744Z,0.74
2022-12-17T10:50:39.426Z,0.59
2022-12-17T10:53:36.601Z,0.85
2022-12-17T10:56:22.683Z,1.18
2022-12-17T10:59:09.981Z,0.82
2022-12-17T11:01:56.150Z,0.87
2022-12-17T11:04:45.396Z,0.70
2022-12-17T11:07:36.084Z,1.13
2022-12-17T11:10:23.544Z,1.32
2022-12-17T11:13:13.439Z,0.98
2022-12-17T11:16:02.439Z,1.12
2022-12-17T11:18:51.540Z,0.87
2022-12-17T11:21:43.421Z,1.27
2022-12-17T11:24:33.146Z,1.82
2022-12-17T11:27:26.398Z,1.03
2022-12-17T11:30:12.173Z,1.27
2022-12-17T11:33:13.262Z,1.49
2022-12-17T11:36:10.899Z,1.23
2022-12-17T11:39:00.048Z,1.56
2022-12-17T11:41:54.591Z,1.68
2022-12-17T11:44:56.680Z,1.93
2022-12-17T11:47:49.114Z,1.94
2022-12-17T11:50:45.594Z,1.99
2022-12-17T11:53:53.024Z,2.13
2022-12-17T11:56:44.756Z,1.17
2022-12-17T11:59:38.709Z,0.40
2022-12-17T12:02:40.880Z,0.35
2022-12-17T12:05:42.368Z,0.95
2022-12-17T12:08:38.481Z,0.50
2022-12-17T12:11:31.952Z,0.65
2022-12-17T12:14:25.209Z,1.05
2022-12-17T12:17:31.728Z,0.53
2022-12-17T12:20:23.385Z,1.03
2022-12-17T12:23:18.376Z,0.78
2022-12-17T12:26:17.268Z,0.42
2022-12-17T12:29:09.108Z,0.63
2022-12-17T12:32:00.422Z,0.45
2022-12-17T12:34:49.606Z,0.31
2022-12-17T12:37:38.057Z,0.62
2022-12-17T12:40:32.479Z,0.39
2022-12-17T12:43:26.582Z,0.50
2022-12-17T12:46:17.246Z,0.27
2022-12-17T12:49:11.229Z,0.09
2022-12-17T12:51:56.962Z,0.19
2022-12-17T12:54:45.984Z,0.49
2022-12-17T12:57:49.612Z,0.84
2022-12-17T13:00:50.770Z,1.06
2022-12-17T13:03:43.032Z,1.00
2022-12-17T13:06:13.247Z,0.41
2022-12-17T13:08:41.576Z,0.31
2022-12-17T13:11:28.243Z,0.61
2022-12-17T13:14:01.707Z,1.18
2022-12-17T13:16:39.083Z,1.15
2022-12-17T13:19:20.873Z,1.07
2022-12-17T13:21:49.772Z,0.77
2022-12-17T13:24:25.806Z,0.94
2022-12-17T13:26:53.429Z,1.23
2022-12-17T13:29:28.177Z,0.22
2022-12-17T13:32:04.870Z,0.36
2022-12-17T13:34:45.711Z,0.83
2022-12-17T13:37:25.689Z,0.50
2022-12-17T13:40:02.632Z,-0.18
2022-12-17T13:42:32.486Z,-0.12
2022-12-17T13:45:00.749Z,0.47
2022-12-17T13:47:30.599Z,0.70
2022-12-17T13:50:32.334Z,0.97
2022-12-17T13:52:48.812Z,0.98
2022-12-17T13:55:21.115Z,1.02
2022-12-17T13:57:49.838Z,0.99
2022-12-17T14:00:23.181Z,-0.02
2022-12-17T14:02:51.008Z,-0.17
2022-12-17T14:05:28.177Z,0.55
2022-12-17T14:07:59.447Z,0.98
2022-12-17T14:10:27.167Z,0.72
2022-12-17T14:13:03.870Z,0.90
2022-12-17T14:15:32.090Z,0.58
2022-12-17T14:18:00.308Z,0.33
2022-12-17T14:20:31.163Z,0.14
2022-12-17T14:23:04.437Z,0.31
2022-12-17T14:25:36.082Z,0.10
2022-12-17T14:28:05.458Z,-0.21
2022-12-17T14:30:46.236Z,-0.24
2022-12-17T14:33:27.719Z,0.39
2022-12-17T14:36:00.096Z,0.45
2022-12-17T14:38:48.212Z,0.19
2022-12-17T14:41:34.217Z,-0.23
2022-12-17T14:44:03.635Z,-0.45
2022-12-17T14:46:32.641Z,-0.22
2022-12-17T14:49:02.592Z,-0.37
2022-12-17T14:51:33.246Z,-0.36
2022-12-17T14:54:19.516Z,0.08
2022-12-17T14:56:49.388Z,0.47
2022-12-17T14:59:33.445Z,0.35
2022-12-17T15:02:04.211Z,0.32
2022-12-17T15:04:33.666Z,-0.15
2022-12-17T15:07:01.099Z,0.38
2022-12-17T15:09:29.951Z,0.48
2022-12-17T15:11:57.355Z,0.04
2022-12-17T15:14:24.921Z,0.27
2022-12-17T15:16:52.806Z,0.52
2022-12-17T15:19:20.214Z,0.47
2022-12-17T15:21:47.806Z,-0.05
2022-12-17T15:24:19.364Z,-0.07
2022-12-17T15:26:48.809Z,-0.01
2022-12-17T15:29:16.192Z,0.19
2022-12-17T15:31:43.641Z,0.11
2022-12-17T15:34:11.918Z,0.68
2022-12-17T15:36:39.323Z,0.88
2022-12-17T15:39:07.166Z,0.77
2022-12-17T15:41:51.929Z,0.66
2022-12-17T15:44:20.718Z,0.57
2022-12-17T15:46:48.232Z,0.84
2022-12-17T15:49:15.688Z,0.87
2022-12-17T15:51:43.156Z,0.84
2022-12-17T15:54:10.565Z,0.85
2022-12-17T15:56:38.140Z,0.65
2022-12-17T15:59:05.520Z,0.83
2022-12-17T16:01:35.271Z,0.89
2022-12-17T16:04:02.844Z,1.08
2022-12-17T16:06:30.389Z,1.08
2022-12-17T16:08:57.806Z,1.20
2022-12-17T16:11:25.223Z,1.35
2022-12-17T16:13:55.213Z,1.39
2022-12-17T16:16:23.035Z,1.25
2022-12-17T16:18:52.792Z,1.30
2022-12-17T16:21:20.236Z,1.14
2022-12-17T16:23:47.674Z,1.14
2022-12-17T16:26:15.135Z,1.19
2022-12-17T16:28:42.544Z,1.07
2022-12-17T16:31:12.671Z,1.32
2022-12-17T16:33:42.893Z,0.73
2022-12-17T16:36:13.715Z,1.17
2022-12-17T16:38:45.180Z,1.03
2022-12-17T16:41:13.567Z,0.82
2022-12-17T16:43:41.283Z,0.76
2022-12-17T16:46:26.213Z,0.98
2022-12-17T16:48:54.695Z,0.90
2022-12-17T16:51:28.922Z,0.73
2022-12-17T16:53:57.404Z,0.65
2022-12-17T16:56:27.237Z,0.55
2022-12-17T16:58:54.988Z,0.25
2022-12-17T17:01:24.011Z,0.39
2022-12-17T17:03:51.657Z,0.56
2022-12-17T17:06:20.104Z,0.92
2022-12-17T17:08:49.003Z,1.03
2022-12-17T17:11:19.239Z,1.01
2022-12-17T17:13:46.643Z,1.01
2022-12-17T17:16:14.133Z,0.97
2022-12-17T17:18:42.182Z,0.80
2022-12-17T17:21:14.820Z,0.84
2022-12-17T17:23:42.798Z,0.85
2022-12-17T17:26:11.633Z,0.99
2022-12-17T17:28:39.791Z,0.57
2022-12-17T17:31:09.926Z,0.68
2022-12-17T17:33:39.562Z,1.11
2022-12-17T17:36:08.801Z,0.48
2022-12-17T17:38:38.664Z,0.16
2022-12-17T17:41:07.264Z,0.91
2022-12-17T17:43:36.119Z,1.18
2022-12-17T17:46:07.818Z,1.17
2022-12-17T17:48:36.348Z,0.91
2022-12-17T17:51:07.288Z,0.71
2022-12-17T17:53:34.788Z,1.08
2022-12-17T17:56:07.216Z,1.00
2022-12-17T17:58:36.329Z,0.01
2022-12-17T18:01:09.468Z,0.24
2022-12-17T18:03:37.339Z,0.56
2022-12-17T18:06:06.759Z,0.70
2022-12-17T18:08:35.513Z,0.55
2022-12-17T18:11:05.903Z,1.02
2022-12-17T18:13:51.022Z,0.98
2022-12-17T18:16:20.731Z,1.14
2022-12-17T18:18:48.680Z,1.15
2022-12-17T18:21:18.010Z,1.20
2022-12-17T18:23:46.353Z,1.29
2022-12-17T18:26:15.957Z,1.21
2022-12-17T18:28:44.363Z,0.83
2022-12-17T18:31:13.969Z,0.87
2022-12-17T18:33:45.120Z,0.75
2022-12-17T18:36:15.218Z,0.88
2022-12-17T18:38:43.577Z,1.20
2022-12-17T18:41:30.921Z,1.17
2022-12-17T18:43:59.879Z,1.06
2022-12-17T18:46:27.525Z,1.10
2022-12-17T18:48:57.484Z,0.86
2022-12-17T18:51:24.954Z,0.98
2022-12-17T18:53:53.365Z,1.15
2022-12-17T18:56:44.747Z,0.90
2022-12-17T18:59:08.181Z,0.90
2022-12-17T19:01:37.612Z,0.72
2022-12-17T19:04:08.983Z,0.40
2022-12-17T19:06:37.813Z,0.72
2022-12-17T19:09:07.136Z,0.72
2022-12-17T19:11:41.932Z,0.92
2022-12-17T19:14:10.964Z,1.24
2022-12-17T19:16:38.646Z,1.26
2022-12-17T19:19:07.406Z,1.26
2022-12-17T19:21:35.342Z,1.12
2022-12-17T19:24:04.620Z,0.05
2022-12-17T19:26:32.826Z,0.75
2022-12-17T19:29:01.928Z,1.13
2022-12-17T19:31:32.058Z,1.06
2022-12-17T19:34:01.368Z,1.09
2022-12-17T19:36:32.089Z,1.12
2022-12-17T19:39:00.918Z,1.06
2022-12-17T19:41:29.589Z,1.16
2022-12-17T19:43:58.933Z,0.61
2022-12-17T19:46:26.706Z,0.77
2022-12-17T19:48:57.366Z,0.39
2022-12-17T19:51:27.191Z,0.61
2022-12-17T19:53:56.482Z,0.91
2022-12-17T19:56:25.958Z,1.03
2022-12-17T19:58:56.010Z,1.13
2022-12-17T20:01:25.763Z,1.08
2022-12-17T20:03:54.109Z,0.98
2022-12-17T20:06:23.856Z,0.08
2022-12-17T20:08:51.952Z,0.15
2022-12-17T20:11:36.405Z,0.45
2022-12-17T20:14:07.804Z,0.66
2022-12-17T20:16:37.419Z,0.70
2022-12-17T20:19:06.738Z,0.45
2022-12-17T20:21:34.332Z,0.65
2022-12-17T20:24:01.839Z,0.72
2022-12-17T20:26:30.641Z,0.42
2022-12-17T20:28:59.065Z,0.73
2022-12-17T20:31:26.666Z,0.98
2022-12-17T20:33:54.117Z,0.90
2022-12-17T20:36:23.319Z,0.39
2022-12-17T20:38:50.982Z,0.08
2022-12-17T20:41:20.794Z,-0.17
2022-12-17T20:43:50.635Z,-1.25
2022-12-17T20:46:20.312Z,-0.10
2022-12-17T20:48:48.242Z,-0.19
2022-12-17T20:51:18.069Z,0.20
2022-12-17T20:53:47.283Z,0.21
2022-12-17T20:56:17.032Z,-0.38
2022-12-17T20:58:44.911Z,-0.47
2022-12-17T21:01:16.023Z,0.10
2022-12-17T21:03:44.104Z,-0.46
2022-12-17T21:06:13.783Z,-0.63
2022-12-17T21:08:49.128Z,0.04
2022-12-17T21:11:18.150Z,-1.65
2022-12-17T21:13:46.043Z,-0.39
2022-12-17T21:16:16.565Z,0.10
2022-12-17T21:18:44.346Z,0.29
2022-12-17T21:21:16.139Z,0.29
2022-12-17T21:23:44.038Z,0.62
2022-12-17T21:26:14.352Z,0.24
2022-12-17T21:28:45.046Z,0.14
2022-12-17T21:31:19.072Z,-0.56
2022-12-17T21:33:47.990Z,-1.34
2022-12-17T21:36:16.935Z,-1.00
2022-12-17T21:38:45.624Z,-1.93
2022-12-17T21:41:16.155Z,-3.12
2022-12-17T21:43:44.083Z,-2.36
2022-12-17T21:46:17.340Z,-1.02
2022-12-17T21:48:46.542Z,-0.19
2022-12-17T21:51:16.759Z,0.17
2022-12-17T21:53:44.661Z,0.22
2022-12-17T21:56:13.967Z,0.21
2022-12-17T21:58:42.380Z,0.38
2022-12-17T22:01:16.367Z,0.20
2022-12-17T22:03:51.337Z,-0.41
2022-12-17T22:06:22.972Z,-0.42
2022-12-17T22:08:55.759Z,0.07
2022-12-17T22:11:28.534Z,-1.18
2022-12-17T22:14:07.263Z,-1.47
2022-12-17T22:16:39.791Z,-1.03
2022-12-17T22:19:10.510Z,-0.93
2022-12-17T22:21:40.567Z,-0.92
2022-12-17T22:24:08.718Z,-0.63
2022-12-17T22:26:36.215Z,-0.76
2022-12-17T22:29:04.074Z,-3.05
2022-12-17T22:31:49.370Z,-1.54
2022-12-17T22:35:00.694Z,-1.64
2022-12-17T22:39:21.736Z,-1.16
2022-12-17T22:43:46.248Z,-0.70
2022-12-17T22:44:46.140Z,-0.29
2022-12-17T22:45:48.882Z,-0.67
2022-12-17T22:48:16.398Z,-0.69
2022-12-17T22:50:50.115Z,-0.35
2022-12-17T22:53:32.869Z,-0.37
2022-12-17T22:56:14.672Z,-0.50
2022-12-17T22:58:53.388Z,-0.63
2022-12-17T23:01:23.346Z,-0.68
2022-12-17T23:03:54.778Z,-1.12
2022-12-17T23:06:24.205Z,-1.63
2022-12-17T23:08:51.895Z,-1.08
2022-12-17T23:11:22.500Z,-1.30
2022-12-17T23:13:50.190Z,-1.09
2022-12-17T23:16:18.532Z,-0.89
2022-12-17T23:18:47.866Z,-1.58
2022-12-17T23:21:17.405Z,-1.82
2022-12-17T23:23:46.591Z,-1.97
2022-12-17T23:26:17.165Z,-1.55
2022-12-17T23:28:45.931Z,-1.96
2022-12-17T23:31:16.055Z,-2.13
2022-12-17T23:33:43.815Z,-1.44
2022-12-17T23:36:13.467Z,-0.56
2022-12-17T23:38:42.152Z,-0.52
2022-12-17T23:41:12.926Z,-0.72
2022-12-17T23:43:40.874Z,-1.00
2022-12-17T23:46:10.015Z,-0.48
2022-12-17T23:48:44.848Z,-0.16
2022-12-17T23:51:14.663Z,-0.05
2022-12-17T23:53:43.470Z,-0.45
2022-12-17T23:56:14.983Z,-0.50
2022-12-17T23:58:44.170Z,-0.43
